Terminal Aerodrome Forecast
Issued by NWS Tuscon, AZ

Home | Current Version | Previous Version | Text Only | Print | Product List | Glossary On
Versions: 1 2 3 4 5 6 7 8 9 10 11 12
000
FTUS45 KTWC 240500
TAFTUS
TAF
KTUS 240520Z 2406/2506 33005KT P6SM SCT250
     FM240900 14007KT P6SM SCT250
     FM242100 27008KT P6SM SCT250
     FM250300 30007KT P6SM SCT250=

USA.gov is the U.S. government's official web portal to all federal, state and local government web resources and services.